sensor_id;sensor_type;location;lat;lon;timestamp;temperature;humidity
66835;HTU21D;53743;51.100;5.874;2022-10-17T00:00:56;16.45;99.62
66835;HTU21D;53743;51.100;5.874;2022-10-17T00:01:57;16.44;99.96
66835;HTU21D;53743;51.100;5.874;2022-10-17T00:02:57;16.44;99.83
66835;HTU21D;53743;51.100;5.874;2022-10-17T00:03:58;16.44;99.87
66835;HTU21D;53743;51.100;5.874;2022-10-17T00:04:59;16.43;99.74
66835;HTU21D;53743;51.100;5.874;2022-10-17T00:06:05;16.42;100.12
66835;HTU21D;53743;51.100;5.874;2022-10-17T00:07:07;16.41;100.28
66835;HTU21D;53743;51.100;5.874;2022-10-17T00:08:10;16.41;100.27
66835;HTU21D;53743;51.100;5.874;2022-10-17T00:09:11;16.37;100.96
66835;HTU21D;53743;51.100;5.874;2022-10-17T00:10:12;16.37;100.29
66835;HTU21D;53743;51.100;5.874;2022-10-17T00:11:16;16.39;99.91
66835;HTU21D;53743;51.100;5.874;2022-10-17T00:12:19;16.36;100.45
66835;HTU21D;53743;51.100;5.874;2022-10-17T00:13:19;16.35;100.55
66835;HTU21D;53743;51.100;5.874;2022-10-17T00:14:20;16.34;100.55
66835;HTU21D;53743;51.100;5.874;2022-10-17T00:15:21;16.32;101.14
66835;HTU21D;53743;51.100;5.874;2022-10-17T00:16:25;16.30;100.76
66835;HTU21D;53743;51.100;5.874;2022-10-17T00:17:27;16.33;100.09
66835;HTU21D;53743;51.100;5.874;2022-10-17T00:18:28;16.33;100.19
66835;HTU21D;53743;51.100;5.874;2022-10-17T00:19:28;16.34;100.38
66835;HTU21D;53743;51.100;5.874;2022-10-17T00:20:29;16.34;100.22
66835;HTU21D;53743;51.100;5.874;2022-10-17T00:21:32;16.34;100.38
66835;HTU21D;53743;51.100;5.874;2022-10-17T00:22:33;16.32;100.12
66835;HTU21D;53743;51.100;5.874;2022-10-17T00:23:33;16.32;100.30
66835;HTU21D;53743;51.100;5.874;2022-10-17T00:24:34;16.29;100.39
66835;HTU21D;53743;51.100;5.874;2022-10-17T00:25:35;16.25;101.57
66835;HTU21D;53743;51.100;5.874;2022-10-17T00:26:36;16.20;101.66
66835;HTU21D;53743;51.100;5.874;2022-10-17T00:27:39;16.20;101.29
66835;HTU21D;53743;51.100;5.874;2022-10-17T00:28:45;16.19;101.12
66835;HTU21D;53743;51.100;5.874;2022-10-17T00:29:48;16.19;100.90
66835;HTU21D;53743;51.100;5.874;2022-10-17T00:31:03;16.13;102.35
66835;HTU21D;53743;51.100;5.874;2022-10-17T00:32:04;16.10;102.48
66835;HTU21D;53743;51.100;5.874;2022-10-17T00:33:06;16.11;101.90
66835;HTU21D;53743;51.100;5.874;2022-10-17T00:34:06;16.11;101.37
66835;HTU21D;53743;51.100;5.874;2022-10-17T00:35:08;16.08;102.28
66835;HTU21D;53743;51.100;5.874;2022-10-17T00:37:16;16.08;101.01
66835;HTU21D;53743;51.100;5.874;2022-10-17T00:38:17;16.10;101.15
66835;HTU21D;53743;51.100;5.874;2022-10-17T00:39:18;16.10;101.15
66835;HTU21D;53743;51.100;5.874;2022-10-17T00:40:18;16.10;101.38
66835;HTU21D;53743;51.100;5.874;2022-10-17T00:41:23;16.08;101.20
66835;HTU21D;53743;51.100;5.874;2022-10-17T00:42:26;16.08;101.39
66835;HTU21D;53743;51.100;5.874;2022-10-17T00:43:27;16.10;101.31
66835;HTU21D;53743;51.100;5.874;2022-10-17T00:45:30;16.11;101.68
66835;HTU21D;53743;51.100;5.874;2022-10-17T00:46:37;16.13;101.83
66835;HTU21D;53743;51.100;5.874;2022-10-17T00:47:40;16.12;102.15
66835;HTU21D;53743;51.100;5.874;2022-10-17T00:48:47;16.10;102.60
66835;HTU21D;53743;51.100;5.874;2022-10-17T00:49:49;16.11;102.02
66835;HTU21D;53743;51.100;5.874;2022-10-17T00:50:50;16.11;101.87
66835;HTU21D;53743;51.100;5.874;2022-10-17T00:51:58;16.12;101.78
66835;HTU21D;53743;51.100;5.874;2022-10-17T00:53:05;16.13;101.87
66835;HTU21D;53743;51.100;5.874;2022-10-17T00:54:10;16.13;101.93
66835;HTU21D;53743;51.100;5.874;2022-10-17T00:55:24;16.15;101.60
66835;HTU21D;53743;51.100;5.874;2022-10-17T00:56:31;16.13;101.76
66835;HTU21D;53743;51.100;5.874;2022-10-17T00:57:33;16.12;101.85
66835;HTU21D;53743;51.100;5.874;2022-10-17T00:58:34;16.13;101.88
66835;HTU21D;53743;51.100;5.874;2022-10-17T00:59:37;16.08;101.89
66835;HTU21D;53743;51.100;5.874;2022-10-17T01:00:42;16.10;101.71
66835;HTU21D;53743;51.100;5.874;2022-10-17T01:01:53;16.07;101.70
66835;HTU21D;53743;51.100;5.874;2022-10-17T01:03:00;16.07;101.58
66835;HTU21D;53743;51.100;5.874;2022-10-17T01:04:01;16.06;101.69
66835;HTU21D;53743;51.100;5.874;2022-10-17T01:05:02;16.08;101.62
66835;HTU21D;53743;51.100;5.874;2022-10-17T01:06:03;16.11;101.62
66835;HTU21D;53743;51.100;5.874;2022-10-17T01:07:04;16.08;101.96
66835;HTU21D;53743;51.100;5.874;2022-10-17T01:08:05;16.08;101.77
66835;HTU21D;53743;51.100;5.874;2022-10-17T01:09:06;16.08;101.68
66835;HTU21D;53743;51.100;5.874;2022-10-17T01:10:10;16.06;101.88
66835;HTU21D;53743;51.100;5.874;2022-10-17T01:11:47;16.03;102.09
66835;HTU21D;53743;51.100;5.874;2022-10-17T01:13:16;16.02;102.27
66835;HTU21D;53743;51.100;5.874;2022-10-17T01:19:06;16.00;102.53
66835;HTU21D;53743;51.100;5.874;2022-10-17T01:20:46;16.00;102.76
66835;HTU21D;53743;51.100;5.874;2022-10-17T01:22:25;16.02;102.50
66835;HTU21D;53743;51.100;5.874;2022-10-17T01:25:56;15.99;102.68
66835;HTU21D;53743;51.100;5.874;2022-10-17T01:32:36;16.00;102.36
66835;HTU21D;53743;51.100;5.874;2022-10-17T01:35:00;16.04;102.42
66835;HTU21D;53743;51.100;5.874;2022-10-17T01:36:36;16.00;102.44
66835;HTU21D;53743;51.100;5.874;2022-10-17T01:37:52;16.03;102.18
66835;HTU21D;53743;51.100;5.874;2022-10-17T01:40:29;16.04;102.32
66835;HTU21D;53743;51.100;5.874;2022-10-17T01:41:41;16.05;102.17
66835;HTU21D;53743;51.100;5.874;2022-10-17T01:43:10;16.04;102.36
66835;HTU21D;53743;51.100;5.874;2022-10-17T01:47:19;16.04;102.44
66835;HTU21D;53743;51.100;5.874;2022-10-17T01:48:31;16.06;102.47
66835;HTU21D;53743;51.100;5.874;2022-10-17T01:49:40;16.07;102.44
66835;HTU21D;53743;51.100;5.874;2022-10-17T01:50:53;16.07;102.32
66835;HTU21D;53743;51.100;5.874;2022-10-17T01:52:13;16.10;102.18
66835;HTU21D;53743;51.100;5.874;2022-10-17T01:53:33;16.11;102.19
66835;HTU21D;53743;51.100;5.874;2022-10-17T01:55:03;16.12;102.29
66835;HTU21D;53743;51.100;5.874;2022-10-17T01:56:12;16.14;102.41
66835;HTU21D;53743;51.100;5.874;2022-10-17T01:57:40;16.15;102.43
66835;HTU21D;53743;51.100;5.874;2022-10-17T01:58:55;16.15;102.64
66835;HTU21D;53743;51.100;5.874;2022-10-17T02:00:08;16.16;102.62
66835;HTU21D;53743;51.100;5.874;2022-10-17T02:01:14;16.15;102.67
66835;HTU21D;53743;51.100;5.874;2022-10-17T02:02:20;16.15;102.88
66835;HTU21D;53743;51.100;5.874;2022-10-17T02:03:26;16.15;102.97
66835;HTU21D;53743;51.100;5.874;2022-10-17T02:04:28;16.15;103.21
66835;HTU21D;53743;51.100;5.874;2022-10-17T02:05:38;16.15;103.38
66835;HTU21D;53743;51.100;5.874;2022-10-17T02:06:40;16.17;103.31
66835;HTU21D;53743;51.100;5.874;2022-10-17T02:07:44;16.18;103.16
66835;HTU21D;53743;51.100;5.874;2022-10-17T02:08:47;16.20;103.00
66835;HTU21D;53743;51.100;5.874;2022-10-17T02:09:49;16.22;103.10
66835;HTU21D;53743;51.100;5.874;2022-10-17T02:11:03;16.21;103.24
66835;HTU21D;53743;51.100;5.874;2022-10-17T02:12:32;16.22;103.47
66835;HTU21D;53743;51.100;5.874;2022-10-17T02:19:49;16.22;103.64
66835;HTU21D;53743;51.100;5.874;2022-10-17T02:21:07;16.22;103.66
66835;HTU21D;53743;51.100;5.874;2022-10-17T02:22:53;16.21;103.63
66835;HTU21D;53743;51.100;5.874;2022-10-17T02:26:09;16.25;103.70
66835;HTU21D;53743;51.100;5.874;2022-10-17T02:27:42;16.25;103.72
66835;HTU21D;53743;51.100;5.874;2022-10-17T02:31:45;16.29;103.79
66835;HTU21D;53743;51.100;5.874;2022-10-17T02:33:02;16.32;103.73
66835;HTU21D;53743;51.100;5.874;2022-10-17T02:34:25;16.34;103.72
66835;HTU21D;53743;51.100;5.874;2022-10-17T02:35:35;16.35;103.60
66835;HTU21D;53743;51.100;5.874;2022-10-17T02:36:49;16.35;103.62
66835;HTU21D;53743;51.100;5.874;2022-10-17T02:37:57;16.37;103.57
66835;HTU21D;53743;51.100;5.874;2022-10-17T02:39:00;16.39;103.32
66835;HTU21D;53743;51.100;5.874;2022-10-17T02:40:04;16.41;103.25
66835;HTU21D;53743;51.100;5.874;2022-10-17T02:41:10;16.41;103.12
66835;HTU21D;53743;51.100;5.874;2022-10-17T02:42:17;16.43;103.00
66835;HTU21D;53743;51.100;5.874;2022-10-17T02:43:21;16.44;102.96
66835;HTU21D;53743;51.100;5.874;2022-10-17T02:44:27;16.43;102.92
66835;HTU21D;53743;51.100;5.874;2022-10-17T02:45:31;16.43;103.21
66835;HTU21D;53743;51.100;5.874;2022-10-17T02:46:37;16.42;103.38
66835;HTU21D;53743;51.100;5.874;2022-10-17T02:49:26;16.46;103.29
66835;HTU21D;53743;51.100;5.874;2022-10-17T02:52:26;16.48;103.28
66835;HTU21D;53743;51.100;5.874;2022-10-17T02:53:54;16.48;103.27
66835;HTU21D;53743;51.100;5.874;2022-10-17T02:55:12;16.50;103.14
66835;HTU21D;53743;51.100;5.874;2022-10-17T02:56:19;16.50;103.15
66835;HTU21D;53743;51.100;5.874;2022-10-17T02:57:28;16.51;103.03
66835;HTU21D;53743;51.100;5.874;2022-10-17T02:58:36;16.52;103.09
66835;HTU21D;53743;51.100;5.874;2022-10-17T02:59:39;16.52;102.98
66835;HTU21D;53743;51.100;5.874;2022-10-17T03:00:47;16.52;103.07
66835;HTU21D;53743;51.100;5.874;2022-10-17T03:01:49;16.54;103.07
66835;HTU21D;53743;51.100;5.874;2022-10-17T03:02:52;16.55;103.07
66835;HTU21D;53743;51.100;5.874;2022-10-17T03:04:07;16.55;103.12
66835;HTU21D;53743;51.100;5.874;2022-10-17T03:05:12;16.58;103.01
66835;HTU21D;53743;51.100;5.874;2022-10-17T03:06:15;16.59;103.01
66835;HTU21D;53743;51.100;5.874;2022-10-17T03:07:16;16.60;102.88
66835;HTU21D;53743;51.100;5.874;2022-10-17T03:08:18;16.60;102.83
66835;HTU21D;53743;51.100;5.874;2022-10-17T03:09:19;16.61;102.86
66835;HTU21D;53743;51.100;5.874;2022-10-17T03:10:21;16.61;102.93
66835;HTU21D;53743;51.100;5.874;2022-10-17T03:11:22;16.61;102.80
66835;HTU21D;53743;51.100;5.874;2022-10-17T03:12:24;16.63;102.73
66835;HTU21D;53743;51.100;5.874;2022-10-17T03:13:27;16.62;102.63
66835;HTU21D;53743;51.100;5.874;2022-10-17T03:14:28;16.63;102.63
66835;HTU21D;53743;51.100;5.874;2022-10-17T03:15:29;16.64;102.58
66835;HTU21D;53743;51.100;5.874;2022-10-17T03:16:30;16.65;102.64
66835;HTU21D;53743;51.100;5.874;2022-10-17T03:17:31;16.65;102.74
66835;HTU21D;53743;51.100;5.874;2022-10-17T03:18:31;16.66;102.55
66835;HTU21D;53743;51.100;5.874;2022-10-17T03:19:34;16.66;102.59
66835;HTU21D;53743;51.100;5.874;2022-10-17T03:20:35;16.66;102.63
66835;HTU21D;53743;51.100;5.874;2022-10-17T03:21:35;16.67;102.56
66835;HTU21D;53743;51.100;5.874;2022-10-17T03:22:37;16.65;102.58
66835;HTU21D;53743;51.100;5.874;2022-10-17T03:23:39;16.70;102.55
66835;HTU21D;53743;51.100;5.874;2022-10-17T03:24:40;16.70;102.47
66835;HTU21D;53743;51.100;5.874;2022-10-17T03:25:41;16.70;102.65
66835;HTU21D;53743;51.100;5.874;2022-10-17T03:26:42;16.72;102.48
66835;HTU21D;53743;51.100;5.874;2022-10-17T03:27:42;16.73;102.45
66835;HTU21D;53743;51.100;5.874;2022-10-17T03:28:43;16.72;102.44
66835;HTU21D;53743;51.100;5.874;2022-10-17T03:29:44;16.73;102.47
66835;HTU21D;53743;51.100;5.874;2022-10-17T03:30:45;16.72;102.52
66835;HTU21D;53743;51.100;5.874;2022-10-17T03:31:47;16.73;102.51
66835;HTU21D;53743;51.100;5.874;2022-10-17T03:32:47;16.72;102.61
66835;HTU21D;53743;51.100;5.874;2022-10-17T03:33:48;16.73;102.47
66835;HTU21D;53743;51.100;5.874;2022-10-17T03:34:49;16.75;102.64
66835;HTU21D;53743;51.100;5.874;2022-10-17T03:35:49;16.75;102.54
66835;HTU21D;53743;51.100;5.874;2022-10-17T03:36:51;16.75;102.65
66835;HTU21D;53743;51.100;5.874;2022-10-17T03:37:54;16.77;102.65
66835;HTU21D;53743;51.100;5.874;2022-10-17T03:38:56;16.79;102.41
66835;HTU21D;53743;51.100;5.874;2022-10-17T03:39:57;16.78;102.47
66835;HTU21D;53743;51.100;5.874;2022-10-17T03:40:58;16.79;102.49
66835;HTU21D;53743;51.100;5.874;2022-10-17T03:41:59;16.77;102.61
66835;HTU21D;53743;51.100;5.874;2022-10-17T03:43:00;16.79;102.69
66835;HTU21D;53743;51.100;5.874;2022-10-17T03:44:02;16.80;102.58
66835;HTU21D;53743;51.100;5.874;2022-10-17T03:45:03;16.82;102.45
66835;HTU21D;53743;51.100;5.874;2022-10-17T03:46:06;16.85;102.55
66835;HTU21D;53743;51.100;5.874;2022-10-17T03:47:07;16.88;102.31
66835;HTU21D;53743;51.100;5.874;2022-10-17T03:48:08;16.89;102.22
66835;HTU21D;53743;51.100;5.874;2022-10-17T03:49:09;16.89;102.45
66835;HTU21D;53743;51.100;5.874;2022-10-17T03:50:09;16.90;102.42
66835;HTU21D;53743;51.100;5.874;2022-10-17T03:51:12;16.93;102.36
66835;HTU21D;53743;51.100;5.874;2022-10-17T03:52:18;16.93;102.36
66835;HTU21D;53743;51.100;5.874;2022-10-17T03:53:18;16.95;102.33
66835;HTU21D;53743;51.100;5.874;2022-10-17T03:54:19;16.96;102.15
66835;HTU21D;53743;51.100;5.874;2022-10-17T03:55:20;16.98;102.20
66835;HTU21D;53743;51.100;5.874;2022-10-17T03:56:23;16.99;102.02
66835;HTU21D;53743;51.100;5.874;2022-10-17T03:57:33;17.00;101.98
66835;HTU21D;53743;51.100;5.874;2022-10-17T03:58:36;17.02;101.86
66835;HTU21D;53743;51.100;5.874;2022-10-17T03:59:37;17.02;101.90
66835;HTU21D;53743;51.100;5.874;2022-10-17T04:00:43;17.02;101.86
66835;HTU21D;53743;51.100;5.874;2022-10-17T04:01:44;17.05;102.00
66835;HTU21D;53743;51.100;5.874;2022-10-17T04:02:46;17.04;101.98
66835;HTU21D;53743;51.100;5.874;2022-10-17T04:03:54;17.04;102.07
66835;HTU21D;53743;51.100;5.874;2022-10-17T04:04:56;17.07;101.93
66835;HTU21D;53743;51.100;5.874;2022-10-17T04:06:00;17.08;101.88
66835;HTU21D;53743;51.100;5.874;2022-10-17T04:07:04;17.09;101.89
66835;HTU21D;53743;51.100;5.874;2022-10-17T04:08:04;17.10;101.67
66835;HTU21D;53743;51.100;5.874;2022-10-17T04:09:28;17.10;101.62
66835;HTU21D;53743;51.100;5.874;2022-10-17T04:10:42;17.13;101.65
66835;HTU21D;53743;51.100;5.874;2022-10-17T04:11:43;17.14;101.75
66835;HTU21D;53743;51.100;5.874;2022-10-17T04:12:43;17.14;101.82
66835;HTU21D;53743;51.100;5.874;2022-10-17T04:13:45;17.16;101.66
66835;HTU21D;53743;51.100;5.874;2022-10-17T04:14:47;17.17;101.54
66835;HTU21D;53743;51.100;5.874;2022-10-17T04:16:00;17.17;101.57
66835;HTU21D;53743;51.100;5.874;2022-10-17T04:17:05;17.18;101.37
66835;HTU21D;53743;51.100;5.874;2022-10-17T04:18:07;17.20;101.37
66835;HTU21D;53743;51.100;5.874;2022-10-17T04:19:11;17.23;101.33
66835;HTU21D;53743;51.100;5.874;2022-10-17T04:20:15;17.23;101.22
66835;HTU21D;53743;51.100;5.874;2022-10-17T04:21:16;17.25;101.18
66835;HTU21D;53743;51.100;5.874;2022-10-17T04:22:18;17.26;101.12
66835;HTU21D;53743;51.100;5.874;2022-10-17T04:23:21;17.30;101.10
66835;HTU21D;53743;51.100;5.874;2022-10-17T04:24:23;17.32;101.09
66835;HTU21D;53743;51.100;5.874;2022-10-17T04:25:36;17.34;101.07
66835;HTU21D;53743;51.100;5.874;2022-10-17T04:26:36;17.38;100.99
66835;HTU21D;53743;51.100;5.874;2022-10-17T04:27:38;17.38;100.87
66835;HTU21D;53743;51.100;5.874;2022-10-17T04:28:39;17.41;100.96
66835;HTU21D;53743;51.100;5.874;2022-10-17T04:29:40;17.41;101.06
66835;HTU21D;53743;51.100;5.874;2022-10-17T04:30:58;17.41;101.06
66835;HTU21D;53743;51.100;5.874;2022-10-17T04:32:05;17.46;101.09
66835;HTU21D;53743;51.100;5.874;2022-10-17T04:33:13;17.47;101.25
66835;HTU21D;53743;51.100;5.874;2022-10-17T04:34:13;17.49;101.02
66835;HTU21D;53743;51.100;5.874;2022-10-17T04:35:14;17.51;101.17
66835;HTU21D;53743;51.100;5.874;2022-10-17T04:36:20;17.54;101.06
66835;HTU21D;53743;51.100;5.874;2022-10-17T04:37:22;17.58;100.88
66835;HTU21D;53743;51.100;5.874;2022-10-17T04:38:26;17.59;100.87
66835;HTU21D;53743;51.100;5.874;2022-10-17T04:39:28;17.59;100.83
66835;HTU21D;53743;51.100;5.874;2022-10-17T04:40:29;17.63;100.91
66835;HTU21D;53743;51.100;5.874;2022-10-17T04:41:30;17.62;100.90
66835;HTU21D;53743;51.100;5.874;2022-10-17T04:42:30;17.66;100.83
66835;HTU21D;53743;51.100;5.874;2022-10-17T04:43:36;17.68;100.68
66835;HTU21D;53743;51.100;5.874;2022-10-17T04:44:38;17.70;100.59
66835;HTU21D;53743;51.100;5.874;2022-10-17T04:45:39;17.70;100.56
66835;HTU21D;53743;51.100;5.874;2022-10-17T04:46:39;17.76;100.45
66835;HTU21D;53743;51.100;5.874;2022-10-17T04:47:40;17.75;100.40
66835;HTU21D;53743;51.100;5.874;2022-10-17T04:48:41;17.79;100.27
66835;HTU21D;53743;51.100;5.874;2022-10-17T04:49:43;17.80;100.21
66835;HTU21D;53743;51.100;5.874;2022-10-17T04:50:55;17.78;100.35
66835;HTU21D;53743;51.100;5.874;2022-10-17T04:52:08;17.81;100.07
66835;HTU21D;53743;51.100;5.874;2022-10-17T04:53:14;17.80;100.03
66835;HTU21D;53743;51.100;5.874;2022-10-17T04:54:15;17.83;100.16
66835;HTU21D;53743;51.100;5.874;2022-10-17T04:55:18;17.78;100.39
66835;HTU21D;53743;51.100;5.874;2022-10-17T04:56:21;17.82;100.03
66835;HTU21D;53743;51.100;5.874;2022-10-17T04:57:22;17.82;100.03
66835;HTU21D;53743;51.100;5.874;2022-10-17T04:58:41;17.82;100.03
66835;HTU21D;53743;51.100;5.874;2022-10-17T04:59:43;17.83;99.96
66835;HTU21D;53743;51.100;5.874;2022-10-17T05:01:08;17.84;99.95
66835;HTU21D;53743;51.100;5.874;2022-10-17T05:02:11;17.85;99.86
66835;HTU21D;53743;51.100;5.874;2022-10-17T05:03:13;17.87;99.82
66835;HTU21D;53743;51.100;5.874;2022-10-17T05:04:14;17.87;99.86
66835;HTU21D;53743;51.100;5.874;2022-10-17T05:05:15;17.85;99.74
66835;HTU21D;53743;51.100;5.874;2022-10-17T05:06:22;17.83;99.85
66835;HTU21D;53743;51.100;5.874;2022-10-17T05:07:50;17.83;99.75
66835;HTU21D;53743;51.100;5.874;2022-10-17T05:08:53;17.82;99.74
66835;HTU21D;53743;51.100;5.874;2022-10-17T05:09:54;17.81;99.68
66835;HTU21D;53743;51.100;5.874;2022-10-17T05:10:56;17.82;99.70
66835;HTU21D;53743;51.100;5.874;2022-10-17T05:11:56;17.81;99.74
66835;HTU21D;53743;51.100;5.874;2022-10-17T05:12:57;17.80;99.64
66835;HTU21D;53743;51.100;5.874;2022-10-17T05:14:02;17.81;99.68
66835;HTU21D;53743;51.100;5.874;2022-10-17T05:15:05;17.79;99.74
66835;HTU21D;53743;51.100;5.874;2022-10-17T05:16:07;17.78;99.67
66835;HTU21D;53743;51.100;5.874;2022-10-17T05:17:09;17.79;99.58
66835;HTU21D;53743;51.100;5.874;2022-10-17T05:18:10;17.78;99.61
66835;HTU21D;53743;51.100;5.874;2022-10-17T05:19:11;17.77;99.82
66835;HTU21D;53743;51.100;5.874;2022-10-17T05:20:18;17.77;99.71
66835;HTU21D;53743;51.100;5.874;2022-10-17T05:21:20;17.78;99.51
66835;HTU21D;53743;51.100;5.874;2022-10-17T05:22:21;17.79;99.44
66835;HTU21D;53743;51.100;5.874;2022-10-17T05:23:22;17.78;99.42
66835;HTU21D;53743;51.100;5.874;2022-10-17T05:24:24;17.77;99.48
66835;HTU21D;53743;51.100;5.874;2022-10-17T05:25:24;17.77;99.57
66835;HTU21D;53743;51.100;5.874;2022-10-17T05:26:25;17.76;99.48
66835;HTU21D;53743;51.100;5.874;2022-10-17T05:27:26;17.76;99.64
66835;HTU21D;53743;51.100;5.874;2022-10-17T05:28:26;17.76;99.61
66835;HTU21D;53743;51.100;5.874;2022-10-17T05:29:31;17.76;99.68
66835;HTU21D;53743;51.100;5.874;2022-10-17T05:30:40;17.76;99.66
66835;HTU21D;53743;51.100;5.874;2022-10-17T05:31:42;17.76;99.50
66835;HTU21D;53743;51.100;5.874;2022-10-17T05:32:43;17.77;99.64
66835;HTU21D;53743;51.100;5.874;2022-10-17T05:33:44;17.77;99.59
66835;HTU21D;53743;51.100;5.874;2022-10-17T05:34:44;17.79;99.47
66835;HTU21D;53743;51.100;5.874;2022-10-17T05:35:45;17.80;99.32
66835;HTU21D;53743;51.100;5.874;2022-10-17T05:36:46;17.81;99.33
66835;HTU21D;53743;51.100;5.874;2022-10-17T05:37:48;17.82;99.30
66835;HTU21D;53743;51.100;5.874;2022-10-17T05:38:51;17.81;99.35
66835;HTU21D;53743;51.100;5.874;2022-10-17T05:39:51;17.81;99.30
66835;HTU21D;53743;51.100;5.874;2022-10-17T05:40:57;17.81;99.49
66835;HTU21D;53743;51.100;5.874;2022-10-17T05:41:59;17.82;99.22
66835;HTU21D;53743;51.100;5.874;2022-10-17T05:43:00;17.83;99.23
66835;HTU21D;53743;51.100;5.874;2022-10-17T05:44:01;17.87;99.22
66835;HTU21D;53743;51.100;5.874;2022-10-17T05:45:13;17.89;98.97
66835;HTU21D;53743;51.100;5.874;2022-10-17T05:46:15;17.90;99.01
66835;HTU21D;53743;51.100;5.874;2022-10-17T05:47:16;17.91;99.16
66835;HTU21D;53743;51.100;5.874;2022-10-17T05:48:17;17.93;98.95
66835;HTU21D;53743;51.100;5.874;2022-10-17T05:49:18;17.94;98.96
66835;HTU21D;53743;51.100;5.874;2022-10-17T05:50:20;17.96;98.92
66835;HTU21D;53743;51.100;5.874;2022-10-17T05:51:35;17.99;98.62
66835;HTU21D;53743;51.100;5.874;2022-10-17T05:52:37;18.02;98.45
66835;HTU21D;53743;51.100;5.874;2022-10-17T05:53:46;18.00;98.69
66835;HTU21D;53743;51.100;5.874;2022-10-17T05:54:53;18.06;98.30
66835;HTU21D;53743;51.100;5.874;2022-10-17T05:55:55;18.07;98.35
66835;HTU21D;53743;51.100;5.874;2022-10-17T05:56:57;18.08;98.32
66835;HTU21D;53743;51.100;5.874;2022-10-17T05:58:03;18.10;98.21
66835;HTU21D;53743;51.100;5.874;2022-10-17T05:59:11;18.10;98.08
66835;HTU21D;53743;51.100;5.874;2022-10-17T06:00:22;18.11;98.17
66835;HTU21D;53743;51.100;5.874;2022-10-17T06:01:29;18.13;97.99
66835;HTU21D;53743;51.100;5.874;2022-10-17T06:02:30;18.14;98.13
66835;HTU21D;53743;51.100;5.874;2022-10-17T06:03:32;18.14;98.01
66835;HTU21D;53743;51.100;5.874;2022-10-17T06:04:37;18.14;97.91
66835;HTU21D;53743;51.100;5.874;2022-10-17T06:05:37;18.18;97.98
66835;HTU21D;53743;51.100;5.874;2022-10-17T06:06:39;18.19;97.88
66835;HTU21D;53743;51.100;5.874;2022-10-17T06:07:40;18.20;97.77
66835;HTU21D;53743;51.100;5.874;2022-10-17T06:08:42;18.25;97.58
66835;HTU21D;53743;51.100;5.874;2022-10-17T06:09:47;18.25;97.36
66835;HTU21D;53743;51.100;5.874;2022-10-17T06:10:49;18.26;97.55
66835;HTU21D;53743;51.100;5.874;2022-10-17T06:11:50;18.28;97.42
66835;HTU21D;53743;51.100;5.874;2022-10-17T06:12:51;18.29;97.42
66835;HTU21D;53743;51.100;5.874;2022-10-17T06:13:52;18.28;97.37
66835;HTU21D;53743;51.100;5.874;2022-10-17T06:14:57;18.29;97.36
66835;HTU21D;53743;51.100;5.874;2022-10-17T06:15:59;18.33;97.23
66835;HTU21D;53743;51.100;5.874;2022-10-17T06:17:00;18.34;97.28
66835;HTU21D;53743;51.100;5.874;2022-10-17T06:18:00;18.34;97.09
66835;HTU21D;53743;51.100;5.874;2022-10-17T06:19:01;18.36;97.07
66835;HTU21D;53743;51.100;5.874;2022-10-17T06:20:03;18.37;97.16
66835;HTU21D;53743;51.100;5.874;2022-10-17T06:21:07;18.36;96.78
66835;HTU21D;53743;51.100;5.874;2022-10-17T06:22:13;18.38;96.96
66835;HTU21D;53743;51.100;5.874;2022-10-17T06:23:14;18.40;96.97
66835;HTU21D;53743;51.100;5.874;2022-10-17T06:24:36;18.42;96.73
66835;HTU21D;53743;51.100;5.874;2022-10-17T06:25:38;18.43;96.62
66835;HTU21D;53743;51.100;5.874;2022-10-17T06:26:39;18.47;96.21
66835;HTU21D;53743;51.100;5.874;2022-10-17T06:27:41;18.47;96.39
66835;HTU21D;53743;51.100;5.874;2022-10-17T06:28:42;18.49;96.42
66835;HTU21D;53743;51.100;5.874;2022-10-17T06:29:43;18.50;96.10
66835;HTU21D;53743;51.100;5.874;2022-10-17T06:30:44;18.51;96.20
66835;HTU21D;53743;51.100;5.874;2022-10-17T06:31:45;18.52;95.96
66835;HTU21D;53743;51.100;5.874;2022-10-17T06:32:46;18.52;95.99
66835;HTU21D;53743;51.100;5.874;2022-10-17T06:33:46;18.53;95.75
66835;HTU21D;53743;51.100;5.874;2022-10-17T06:34:47;18.55;95.73
66835;HTU21D;53743;51.100;5.874;2022-10-17T06:35:52;18.58;95.65
66835;HTU21D;53743;51.100;5.874;2022-10-17T06:36:55;18.61;95.35
66835;HTU21D;53743;51.100;5.874;2022-10-17T06:37:56;18.66;95.17
66835;HTU21D;53743;51.100;5.874;2022-10-17T06:38:57;18.67;95.04
66835;HTU21D;53743;51.100;5.874;2022-10-17T06:40:18;18.70;95.23
66835;HTU21D;53743;51.100;5.874;2022-10-17T06:41:19;18.72;95.22
66835;HTU21D;53743;51.100;5.874;2022-10-17T06:42:19;18.80;94.85
66835;HTU21D;53743;51.100;5.874;2022-10-17T06:43:41;18.86;94.71
66835;HTU21D;53743;51.100;5.874;2022-10-17T06:45:17;18.95;94.33
66835;HTU21D;53743;51.100;5.874;2022-10-17T06:46:38;19.07;93.61
66835;HTU21D;53743;51.100;5.874;2022-10-17T06:47:41;19.18;93.95
66835;HTU21D;53743;51.100;5.874;2022-10-17T06:49:14;19.37;92.01
66835;HTU21D;53743;51.100;5.874;2022-10-17T06:50:23;19.45;92.08
66835;HTU21D;53743;51.100;5.874;2022-10-17T06:51:38;19.46;91.96
66835;HTU21D;53743;51.100;5.874;2022-10-17T06:52:41;19.47;91.85
66835;HTU21D;53743;51.100;5.874;2022-10-17T06:54:01;19.50;91.45
66835;HTU21D;53743;51.100;5.874;2022-10-17T06:55:16;19.47;91.03
66835;HTU21D;53743;51.100;5.874;2022-10-17T06:56:27;19.46;91.61
66835;HTU21D;53743;51.100;5.874;2022-10-17T06:57:36;19.47;91.62
66835;HTU21D;53743;51.100;5.874;2022-10-17T06:58:56;19.45;91.48
66835;HTU21D;53743;51.100;5.874;2022-10-17T07:00:04;19.43;91.49
66835;HTU21D;53743;51.100;5.874;2022-10-17T07:01:12;19.42;91.23
66835;HTU21D;53743;51.100;5.874;2022-10-17T07:02:13;19.43;91.29
66835;HTU21D;53743;51.100;5.874;2022-10-17T07:03:15;19.41;91.41
66835;HTU21D;53743;51.100;5.874;2022-10-17T07:04:16;19.39;91.15
66835;HTU21D;53743;51.100;5.874;2022-10-17T07:05:17;19.39;91.11
66835;HTU21D;53743;51.100;5.874;2022-10-17T07:06:18;19.40;91.27
66835;HTU21D;53743;51.100;5.874;2022-10-17T07:07:20;19.38;91.27
66835;HTU21D;53743;51.100;5.874;2022-10-17T07:08:21;19.38;91.40
66835;HTU21D;53743;51.100;5.874;2022-10-17T07:09:22;19.40;90.99
66835;HTU21D;53743;51.100;5.874;2022-10-17T07:10:25;19.39;90.98
66835;HTU21D;53743;51.100;5.874;2022-10-17T07:11:26;19.40;91.27
66835;HTU21D;53743;51.100;5.874;2022-10-17T07:12:26;19.40;91.08
66835;HTU21D;53743;51.100;5.874;2022-10-17T07:13:27;19.40;91.39
66835;HTU21D;53743;51.100;5.874;2022-10-17T07:14:27;19.43;91.53
66835;HTU21D;53743;51.100;5.874;2022-10-17T07:15:31;19.45;91.55
66835;HTU21D;53743;51.100;5.874;2022-10-17T07:16:33;19.53;91.36
66835;HTU21D;53743;51.100;5.874;2022-10-17T07:17:42;19.62;91.61
66835;HTU21D;53743;51.100;5.874;2022-10-17T07:18:50;19.76;91.34